createdAt,value
2018-12-12T00:01:29.036Z,4.56
2018-12-12T00:04:36.528Z,4.68
2018-12-12T00:07:44.571Z,4.72
2018-12-12T00:10:52.247Z,4.69
2018-12-12T00:13:59.749Z,4.69
2018-12-12T00:17:07.214Z,4.61
2018-12-12T00:20:15.464Z,4.50
2018-12-12T00:23:23.028Z,4.54
2018-12-12T00:26:30.844Z,4.53
2018-12-12T00:29:38.483Z,4.54
2018-12-12T00:32:56.265Z,4.45
2018-12-12T00:36:14.028Z,4.52
2018-12-12T00:39:31.964Z,4.62
2018-12-12T00:42:39.972Z,4.62
2018-12-12T00:45:48.292Z,4.60
2018-12-12T00:48:56.628Z,4.66
2018-12-12T00:52:14.439Z,4.63
2018-12-12T00:55:32.286Z,4.70
2018-12-12T00:58:50.040Z,4.80
2018-12-12T01:02:07.873Z,4.90
2018-12-12T01:05:25.620Z,4.92
2018-12-12T01:08:43.432Z,4.93
2018-12-12T01:12:09.606Z,4.86
2018-12-12T01:15:17.515Z,4.86
2018-12-12T01:18:25.484Z,4.81
2018-12-12T01:21:33.108Z,4.77
2018-12-12T01:24:40.669Z,4.60
2018-12-12T01:27:48.200Z,4.46
2018-12-12T01:31:06.228Z,4.37
2018-12-12T01:34:24.284Z,4.32
2018-12-12T01:37:31.872Z,4.43
2018-12-12T01:40:39.609Z,4.32
2018-12-12T01:43:47.084Z,4.34
2018-12-12T01:47:05.441Z,4.37
2018-12-12T01:50:13.040Z,4.45
2018-12-12T01:53:20.511Z,4.31
2018-12-12T01:56:28.013Z,4.28
2018-12-12T01:59:45.976Z,4.23
2018-12-12T02:03:03.684Z,4.34
2018-12-12T02:06:21.527Z,4.38
2018-12-12T02:09:39.368Z,4.43
2018-12-12T02:13:14.537Z,4.53
2018-12-12T02:16:32.488Z,4.42
2018-12-12T02:19:50.606Z,4.47
2018-12-12T02:22:58.124Z,4.52
2018-12-12T02:26:05.801Z,4.55
2018-12-12T02:29:13.404Z,4.63
2018-12-12T02:32:31.262Z,4.70
2018-12-12T02:35:49.020Z,4.74
2018-12-12T02:38:56.857Z,4.60
2018-12-12T02:42:04.483Z,4.55
2018-12-12T02:45:11.955Z,4.55
2018-12-12T02:48:19.481Z,4.51
2018-12-12T02:51:37.186Z,4.42
2018-12-12T02:54:54.952Z,4.33
2018-12-12T02:58:12.678Z,4.36
2018-12-12T03:01:31.141Z,4.32
2018-12-12T03:04:38.715Z,4.37
2018-12-12T03:07:46.180Z,4.41
2018-12-12T03:11:04.389Z,4.47
2018-12-12T03:14:27.348Z,4.41
2018-12-12T03:17:45.622Z,4.39
2018-12-12T03:20:53.504Z,4.49
2018-12-12T03:24:00.993Z,4.51
2018-12-12T03:27:18.960Z,4.58
2018-12-12T03:30:38.313Z,4.67
2018-12-12T03:33:56.054Z,4.59
2018-12-12T03:37:13.793Z,4.49
2018-12-12T03:40:32.660Z,4.55
2018-12-12T03:43:40.257Z,4.51
2018-12-12T03:46:58.196Z,4.64
2018-12-12T03:50:15.952Z,4.75
2018-12-12T03:53:33.769Z,4.77
2018-12-12T03:56:51.529Z,4.88
2018-12-12T04:00:10.253Z,4.90
2018-12-12T04:03:17.816Z,4.94
2018-12-12T04:06:25.351Z,4.73
2018-12-12T04:09:43.140Z,4.77
2018-12-12T04:13:00.859Z,4.80
2018-12-12T04:16:19.320Z,4.69
2018-12-12T04:19:26.909Z,4.73
2018-12-12T04:22:35.243Z,4.58
2018-12-12T04:25:42.696Z,4.43
2018-12-12T04:28:50.321Z,4.39
2018-12-12T04:31:57.904Z,4.36
2018-12-12T04:35:15.616Z,4.34
2018-12-12T04:38:33.499Z,4.19
2018-12-12T04:41:51.537Z,4.25
2018-12-12T04:44:59.220Z,4.33
2018-12-12T04:48:06.724Z,4.41
2018-12-12T04:51:14.303Z,4.28
2018-12-12T04:54:32.200Z,4.37
2018-12-12T04:57:49.993Z,4.41
2018-12-12T05:01:07.753Z,4.52
2018-12-12T05:04:25.572Z,4.55
2018-12-12T05:07:43.735Z,4.55
2018-12-12T05:11:01.636Z,4.59
2018-12-12T05:14:08.981Z,4.60
2018-12-12T05:17:16.548Z,4.74
2018-12-12T05:20:23.981Z,4.79
2018-12-12T05:23:31.564Z,4.81
2018-12-12T05:26:39.025Z,4.92
2018-12-12T05:29:56.940Z,4.93
2018-12-12T05:33:14.640Z,4.96
2018-12-12T05:36:32.404Z,4.91
2018-12-12T05:39:58.287Z,4.89
2018-12-12T05:43:05.903Z,4.75
2018-12-12T05:46:13.876Z,4.72
2018-12-12T05:49:21.521Z,4.82
2018-12-12T05:52:28.976Z,4.81
2018-12-12T05:55:36.467Z,4.92
2018-12-12T05:58:44.006Z,4.85
2018-12-12T06:01:51.580Z,4.82
2018-12-12T06:05:09.918Z,4.79
2018-12-12T06:08:17.533Z,4.88
2018-12-12T06:11:25.052Z,4.90
2018-12-12T06:14:32.528Z,4.92
2018-12-12T06:17:50.548Z,4.95
2018-12-12T06:21:08.431Z,4.89
2018-12-12T06:24:26.148Z,4.95
2018-12-12T06:27:43.865Z,4.95
2018-12-12T06:31:01.843Z,4.95
2018-12-12T06:34:09.358Z,4.96
2018-12-12T06:37:16.906Z,4.94
2018-12-12T06:40:24.644Z,4.95
2018-12-12T06:43:32.228Z,4.98
2018-12-12T06:46:39.676Z,4.97
2018-12-12T06:49:47.481Z,4.91
2018-12-12T06:52:55.204Z,4.89
2018-12-12T06:56:13.095Z,4.92
2018-12-12T06:59:30.927Z,4.86
2018-12-12T07:02:48.679Z,4.90
2018-12-12T07:06:06.484Z,4.81
2018-12-12T07:09:24.328Z,4.82
2018-12-12T07:12:42.028Z,4.83
2018-12-12T07:16:01.328Z,4.77
2018-12-12T07:19:19.191Z,4.86
2018-12-12T07:22:37.399Z,4.83
2018-12-12T07:25:45.052Z,4.79
2018-12-12T07:28:52.754Z,4.82
2018-12-12T07:32:10.792Z,4.82
2018-12-12T07:35:28.500Z,4.89
2018-12-12T07:38:46.324Z,4.81
2018-12-12T07:42:04.176Z,4.89
2018-12-12T07:45:21.920Z,4.92
2018-12-12T07:48:39.632Z,4.99
2018-12-12T07:51:57.413Z,5.05
2018-12-12T07:55:15.337Z,5.11
2018-12-12T07:58:33.048Z,5.11
2018-12-12T08:01:51.013Z,5.13
2018-12-12T08:05:09.596Z,5.18
2018-12-12T08:08:17.144Z,5.20
2018-12-12T08:11:25.075Z,5.28
2018-12-12T08:14:32.603Z,5.29
2018-12-12T08:17:42.452Z,5.29
2018-12-12T08:21:01.106Z,5.38
2018-12-12T08:27:31.007Z,5.32
2018-12-12T08:33:58.488Z,5.37
2018-12-12T08:37:06.144Z,5.37
2018-12-12T08:40:13.920Z,5.33
2018-12-12T08:43:31.852Z,5.42
2018-12-12T08:46:49.715Z,5.39
2018-12-12T08:50:14.191Z,5.43
2018-12-12T08:53:23.490Z,5.55
2018-12-12T08:56:31.062Z,5.55
2018-12-12T09:02:54.641Z,5.70
2018-12-12T09:06:12.901Z,5.80
2018-12-12T09:09:20.407Z,5.76
2018-12-12T09:12:27.975Z,5.84
2018-12-12T09:18:52.002Z,5.97
2018-12-12T09:21:59.748Z,5.98
2018-12-12T09:25:08.127Z,5.97
2018-12-12T09:28:16.099Z,5.96
2018-12-12T09:31:23.701Z,6.02
2018-12-12T09:34:31.157Z,6.02
2018-12-12T09:37:38.830Z,6.01
2018-12-12T09:40:46.805Z,6.00
2018-12-12T09:44:04.521Z,6.19
2018-12-12T09:47:23.154Z,6.17
2018-12-12T09:50:31.636Z,6.13
2018-12-12T09:53:39.843Z,6.07
2018-12-12T09:56:47.920Z,6.11
2018-12-12T09:59:55.549Z,6.12
2018-12-12T10:03:03.039Z,6.16
2018-12-12T10:06:21.196Z,6.09
2018-12-12T10:09:28.724Z,6.06
2018-12-12T10:15:52.872Z,6.22
2018-12-12T10:19:11.240Z,6.20
2018-12-12T10:22:18.774Z,6.17
2018-12-12T10:25:27.149Z,6.23
2018-12-12T10:28:35.389Z,6.26
2018-12-12T10:31:53.412Z,6.28
2018-12-12T10:35:11.545Z,6.33
2018-12-12T10:38:19.135Z,6.22
2018-12-12T10:41:27.165Z,6.32
2018-12-12T10:44:34.748Z,6.29
2018-12-12T10:47:42.493Z,6.26
2018-12-12T10:50:50.077Z,6.25
2018-12-12T10:53:57.600Z,6.28
2018-12-12T10:57:14.795Z,6.30
2018-12-12T11:00:34.438Z,6.40
2018-12-12T11:03:44.377Z,6.45
2018-12-12T11:06:52.420Z,6.45
2018-12-12T11:10:00.035Z,6.50
2018-12-12T11:13:17.872Z,6.54
2018-12-12T11:16:35.620Z,6.61
2018-12-12T11:19:43.370Z,6.60
2018-12-12T11:22:50.888Z,6.63
2018-12-12T11:25:58.414Z,6.62
2018-12-12T11:29:05.950Z,6.62
2018-12-12T11:32:23.968Z,6.66
2018-12-12T11:35:31.440Z,6.69
2018-12-12T11:38:38.892Z,6.66
2018-12-12T11:41:56.697Z,6.80
2018-12-12T11:45:04.738Z,6.73
2018-12-12T11:48:12.271Z,6.73
2018-12-12T11:51:19.788Z,6.72
2018-12-12T11:54:37.453Z,6.64
2018-12-12T11:57:46.076Z,6.66
2018-12-12T12:00:53.691Z,6.67
2018-12-12T12:04:01.260Z,6.70
2018-12-12T12:07:08.716Z,6.79
2018-12-12T12:10:16.358Z,6.71
2018-12-12T12:13:33.649Z,6.72
2018-12-12T12:16:50.992Z,6.77
2018-12-12T12:19:58.548Z,6.85
2018-12-12T12:23:06.000Z,6.88
2018-12-12T12:26:14.320Z,6.87
2018-12-12T12:29:22.882Z,6.83
2018-12-12T12:32:40.694Z,6.88
2018-12-12T12:35:57.901Z,6.88
2018-12-12T12:39:15.220Z,6.86
2018-12-12T12:42:22.822Z,6.86
2018-12-12T12:45:30.297Z,6.84
2018-12-12T12:48:37.783Z,6.83
2018-12-12T12:51:45.523Z,6.91
2018-12-12T12:55:03.354Z,6.87
2018-12-12T12:58:21.388Z,6.81
2018-12-12T13:01:28.990Z,6.64
2018-12-12T13:04:36.459Z,6.67
2018-12-12T13:07:54.227Z,6.65
2018-12-12T13:11:14.799Z,6.63
2018-12-12T13:14:20.968Z,6.51
2018-12-12T13:17:28.492Z,6.58
2018-12-12T13:20:36.472Z,6.65
2018-12-12T13:23:43.992Z,6.60
2018-12-12T13:26:53.651Z,6.46
2018-12-12T13:30:01.075Z,6.47
2018-12-12T13:33:08.740Z,6.41
2018-12-12T13:36:16.235Z,6.40
2018-12-12T13:39:23.733Z,6.40
2018-12-12T13:42:31.333Z,6.37
2018-12-12T13:45:48.739Z,6.34
2018-12-12T13:48:57.212Z,6.42
2018-12-12T13:52:04.812Z,6.45
2018-12-12T13:55:21.984Z,6.57
2018-12-12T13:58:39.337Z,6.60
2018-12-12T14:01:56.532Z,6.64
2018-12-12T14:05:13.878Z,6.47
2018-12-12T14:08:31.608Z,6.51
2018-12-12T14:11:49.444Z,6.64
2018-12-12T14:15:07.929Z,6.71
2018-12-12T14:18:15.410Z,6.59
2018-12-12T14:21:22.925Z,6.56
2018-12-12T14:24:30.503Z,6.51
2018-12-12T14:27:39.011Z,6.54
2018-12-12T14:30:47.047Z,6.55
2018-12-12T14:33:54.605Z,6.43
2018-12-12T14:37:02.470Z,6.43
2018-12-12T14:40:10.136Z,6.41
2018-12-12T14:43:17.612Z,6.39
2018-12-12T14:46:25.243Z,6.30
2018-12-12T14:49:32.733Z,6.26
2018-12-12T14:52:50.036Z,6.11
2018-12-12T14:56:08.280Z,6.13
2018-12-12T14:59:16.339Z,6.07
2018-12-12T15:02:23.954Z,6.12
2018-12-12T15:05:41.104Z,6.09
2018-12-12T15:08:58.448Z,6.13
2018-12-12T15:12:15.692Z,6.07
2018-12-12T15:15:33.427Z,6.06
2018-12-12T15:18:41.272Z,6.06
2018-12-12T15:21:49.274Z,5.95
2018-12-12T15:24:56.840Z,5.80
2018-12-12T15:31:26.625Z,5.63
2018-12-12T15:34:44.415Z,5.61
2018-12-12T15:38:02.246Z,5.56
2018-12-12T15:41:09.952Z,5.45
2018-12-12T15:44:17.420Z,5.39
2018-12-12T15:47:24.900Z,5.19
2018-12-12T15:50:32.498Z,5.19
2018-12-12T15:53:50.430Z,5.08
2018-12-12T15:57:08.116Z,5.06
2018-12-12T16:00:27.955Z,4.95
2018-12-12T16:03:35.497Z,4.79
2018-12-12T16:06:43.009Z,4.69
2018-12-12T16:09:50.565Z,4.79
2018-12-12T16:13:08.528Z,4.76
2018-12-12T16:16:26.800Z,4.71
2018-12-12T16:19:34.315Z,4.63
2018-12-12T16:22:41.797Z,4.55
2018-12-12T16:25:49.259Z,4.49
2018-12-12T16:28:56.723Z,4.47
2018-12-12T16:32:14.932Z,4.46
2018-12-12T16:35:22.556Z,4.47
2018-12-12T16:38:30.014Z,4.43
2018-12-12T16:41:38.159Z,4.37
2018-12-12T16:44:45.639Z,4.36
2018-12-12T16:47:53.109Z,4.33
2018-12-12T16:51:04.418Z,4.34
2018-12-12T16:54:12.004Z,4.32
2018-12-12T16:57:19.514Z,4.28
2018-12-12T17:00:27.033Z,4.25
2018-12-12T17:03:34.630Z,4.27
2018-12-12T17:06:42.133Z,4.29
2018-12-12T17:09:49.623Z,4.23
2018-12-12T17:12:57.102Z,4.20
2018-12-12T17:16:04.578Z,4.22
2018-12-12T17:19:12.108Z,4.17
2018-12-12T17:22:29.364Z,4.24
2018-12-12T17:25:47.158Z,4.25
2018-12-12T17:29:05.527Z,4.31
2018-12-12T17:32:13.042Z,4.33
2018-12-12T17:35:20.490Z,4.38
2018-12-12T17:38:28.512Z,4.41
2018-12-12T17:41:36.640Z,4.44
2018-12-12T17:44:44.131Z,4.48
2018-12-12T17:48:01.944Z,4.44
2018-12-12T17:51:19.368Z,4.52
2018-12-12T17:54:36.995Z,4.62
2018-12-12T17:57:54.784Z,4.59
2018-12-12T18:01:12.624Z,4.61
2018-12-12T18:04:30.313Z,4.62
2018-12-12T18:07:48.137Z,4.67
2018-12-12T18:11:06.392Z,4.66
2018-12-12T18:14:14.140Z,4.69
2018-12-12T18:17:21.587Z,4.72
2018-12-12T18:20:29.224Z,4.72
2018-12-12T18:23:46.956Z,4.69
2018-12-12T18:27:04.730Z,4.71
2018-12-12T18:30:22.472Z,4.66
2018-12-12T18:33:40.263Z,4.61
2018-12-12T18:36:57.766Z,4.59
2018-12-12T18:40:16.133Z,4.48
2018-12-12T18:43:23.809Z,4.49
2018-12-12T18:46:31.276Z,4.57
2018-12-12T18:49:38.848Z,4.57
2018-12-12T18:52:56.545Z,4.51
2018-12-12T18:56:14.904Z,4.60
2018-12-12T18:59:22.504Z,4.57
2018-12-12T19:02:29.969Z,4.65
2018-12-12T19:05:37.400Z,4.64
2018-12-12T19:08:44.950Z,4.60
2018-12-12T19:11:52.415Z,4.49
2018-12-12T19:15:04.734Z,4.54
2018-12-12T19:18:12.468Z,4.63
2018-12-12T19:21:20.052Z,4.66
2018-12-12T19:24:37.764Z,4.70
2018-12-12T19:27:55.505Z,4.52
2018-12-12T19:31:13.367Z,4.57
2018-12-12T19:34:31.118Z,4.50
2018-12-12T19:37:48.888Z,4.41
2018-12-12T19:40:56.720Z,4.50
2018-12-12T19:44:04.716Z,4.56
2018-12-12T19:47:13.284Z,4.54
2018-12-12T19:50:20.852Z,4.45
2018-12-12T19:53:38.126Z,4.39
2018-12-12T19:56:55.904Z,4.41
2018-12-12T20:00:13.839Z,4.34
2018-12-12T20:03:32.253Z,4.37
2018-12-12T20:06:39.728Z,4.33
2018-12-12T20:09:47.212Z,4.33
2018-12-12T20:12:55.104Z,4.35
2018-12-12T20:16:12.793Z,4.39
2018-12-12T20:19:30.660Z,4.54
2018-12-12T20:22:48.392Z,4.58
2018-12-12T20:26:06.531Z,4.55
2018-12-12T20:29:14.511Z,4.62
2018-12-12T20:32:21.963Z,4.62
2018-12-12T20:35:40.288Z,4.49
2018-12-12T20:38:47.837Z,4.38
2018-12-12T20:41:55.320Z,4.36
2018-12-12T20:45:02.784Z,4.26
2018-12-12T20:48:10.244Z,4.26
2018-12-12T20:51:28.514Z,4.21
2018-12-12T20:54:36.306Z,4.12
2018-12-12T20:57:43.793Z,4.18
2018-12-12T21:00:51.276Z,3.94
2018-12-12T21:04:09.078Z,4.03
2018-12-12T21:07:26.933Z,3.94
2018-12-12T21:10:44.581Z,3.89
2018-12-12T21:13:52.336Z,3.94
2018-12-12T21:16:59.808Z,3.97
2018-12-12T21:20:10.171Z,4.02
2018-12-12T21:23:17.637Z,4.15
2018-12-12T21:26:25.404Z,4.15
2018-12-12T21:29:43.236Z,4.17
2018-12-12T21:33:00.991Z,4.27
2018-12-12T21:36:19.129Z,4.38
2018-12-12T21:39:26.781Z,4.32
2018-12-12T21:42:34.260Z,4.35
2018-12-12T21:45:41.692Z,4.50
2018-12-12T21:48:49.241Z,4.64
2018-12-12T21:51:56.701Z,4.69
2018-12-12T21:55:05.028Z,4.62
2018-12-12T21:58:22.883Z,4.64
2018-12-12T22:01:40.707Z,4.55
2018-12-12T22:04:58.473Z,4.62
2018-12-12T22:08:16.180Z,4.68
2018-12-12T22:11:36.205Z,4.68
2018-12-12T22:14:43.752Z,4.71
2018-12-12T22:17:51.196Z,4.73
2018-12-12T22:20:58.714Z,4.72
2018-12-12T22:24:16.728Z,4.81
2018-12-12T22:27:24.200Z,4.68
2018-12-12T22:30:31.828Z,4.80
2018-12-12T22:33:39.296Z,4.90
2018-12-12T22:36:47.972Z,4.64
2018-12-12T22:39:55.560Z,4.73
2018-12-12T22:43:03.016Z,4.66
2018-12-12T22:46:20.876Z,4.78
2018-12-12T22:49:38.845Z,4.81
2018-12-12T22:52:46.396Z,4.58
2018-12-12T22:55:53.912Z,4.58
2018-12-12T22:59:01.483Z,4.63
2018-12-12T23:02:08.945Z,4.62
2018-12-12T23:05:26.864Z,4.63
2018-12-12T23:08:44.564Z,4.54
2018-12-12T23:11:52.801Z,4.73
2018-12-12T23:15:00.276Z,4.67
2018-12-12T23:18:08.176Z,4.60
2018-12-12T23:21:15.802Z,4.76
2018-12-12T23:24:25.193Z,4.57
2018-12-12T23:27:43.185Z,4.59
2018-12-12T23:31:00.607Z,4.65
2018-12-12T23:34:18.235Z,4.69
2018-12-12T23:37:36.013Z,4.67
2018-12-12T23:40:55.391Z,4.54
2018-12-12T23:44:13.092Z,4.60
2018-12-12T23:47:30.324Z,4.64
2018-12-12T23:50:48.652Z,4.75
2018-12-12T23:53:56.172Z,4.79
2018-12-12T23:57:03.684Z,4.89
